Time;durP1;ratioP1;P1;durP2;ratioP2;P2;SDS_P1;SDS_P2;PMS_P1;PMS_P2;Temp;Humidity;BMP_temperature;BMP_pressure;BME280_temperature;BME280_humidity;BME280_pressure;Samples;Min_cycle;Max_cycle;Signal;HPM_P1;HPM_P2
2022/01/04 00:01:23;;;;;;;3.05;0.88;;;;;;;;;;5033067;28;20037;-84
2022/01/04 00:03:49;;;;;;;4.50;0.88;;;;;;;;;;5042015;28;20021;-83
2022/01/04 00:06:15;;;;;;;4.57;1.00;;;;;;;;;;5039662;28;20017;-84
2022/01/04 00:08:42;;;;;;;1.95;0.93;;;;;;;;;;5028438;28;20343;-83
2022/01/04 00:11:20;;;;;;;2.70;1.20;;;;;;;;;;5021608;28;20432;-84
2022/01/04 00:13:46;;;;;;;5.28;1.45;;;;;;;;;;5040278;28;20075;-84
2022/01/04 00:16:12;;;;;;;3.90;1.00;;;;;;;;;;5036841;28;20396;-84
2022/01/04 00:18:39;;;;;;;5.97;1.27;;;;;;;;;;5026444;28;20056;-85
2022/01/04 00:21:06;;;;;;;4.43;1.52;;;;;;;;;;5048679;28;20116;-85
2022/01/04 00:23:32;;;;;;;2.92;0.90;;;;;;;;;;5021489;28;20112;-85
2022/01/04 00:25:58;;;;;;;4.43;1.00;;;;;;;;;;5039894;28;20044;-84
2022/01/04 00:28:24;;;;;;;2.13;0.80;;;;;;;;;;5041281;28;20124;-85
2022/01/04 00:30:50;;;;;;;4.85;1.20;;;;;;;;;;5055274;28;20061;-83
2022/01/04 00:33:17;;;;;;;2.50;1.05;;;;;;;;;;5036474;28;20029;-84
2022/01/04 00:35:43;;;;;;;3.30;1.13;;;;;;;;;;5045395;28;20078;-84
2022/01/04 00:38:09;;;;;;;1.73;0.90;;;;;;;;;;5036590;28;20404;-84
2022/01/04 00:40:35;;;;;;;1.60;0.70;;;;;;;;;;5034870;28;20428;-83
2022/01/04 00:43:02;;;;;;;4.32;1.42;;;;;;;;;;5073360;28;20107;-84
2022/01/04 00:45:32;;;;;;;2.95;1.00;;;;;;;;;;5045386;28;20029;-83
2022/01/04 00:50:25;;;;;;;3.78;1.05;;;;;;;;;;5056836;28;20112;-83
2022/01/04 00:52:51;;;;;;;4.20;0.90;;;;;;;;;;5026208;28;20104;-83
2022/01/04 00:55:19;;;;;;;5.85;1.05;;;;;;;;;;5032050;28;20067;-84
2022/01/04 00:57:45;;;;;;;8.57;0.80;;;;;;;;;;5018253;28;20108;-84
2022/01/04 01:00:13;;;;;;;1.95;0.88;;;;;;;;;;5054713;28;20098;-84
2022/01/04 01:02:39;;;;;;;3.58;0.90;;;;;;;;;;5034513;28;20107;-84
2022/01/04 01:05:06;;;;;;;4.70;1.05;;;;;;;;;;5048550;28;20048;-83
2022/01/04 01:07:33;;;;;;;1.63;0.70;;;;;;;;;;5049574;28;20067;-84
2022/01/04 01:12:44;;;;;;;1.40;0.80;;;;;;;;;;5054915;28;20052;-84
2022/01/04 01:15:10;;;;;;;2.67;0.70;;;;;;;;;;5033993;28;20033;-85
2022/01/04 01:17:36;;;;;;;1.73;0.60;;;;;;;;;;5062977;28;20054;-85
2022/01/04 01:20:03;;;;;;;3.42;0.85;;;;;;;;;;5036794;28;20374;-85
2022/01/04 01:22:29;;;;;;;1.00;0.57;;;;;;;;;;5028648;28;20057;-84
2022/01/04 01:24:55;;;;;;;4.07;0.82;;;;;;;;;;5022265;28;20022;-83
2022/01/04 01:27:21;;;;;;;3.65;0.82;;;;;;;;;;5053125;28;20017;-84
2022/01/04 01:29:47;;;;;;;4.32;0.68;;;;;;;;;;5030511;28;20030;-83
2022/01/04 01:32:13;;;;;;;2.42;0.80;;;;;;;;;;5031109;28;20021;-83
2022/01/04 01:34:41;;;;;;;1.45;0.55;;;;;;;;;;5041230;28;20036;-84
2022/01/04 01:37:07;;;;;;;3.75;0.45;;;;;;;;;;5042463;28;20530;-84
2022/01/04 01:39:33;;;;;;;3.53;0.70;;;;;;;;;;5042627;28;20040;-83
2022/01/04 01:41:59;;;;;;;1.25;0.60;;;;;;;;;;5060265;28;20033;-83
2022/01/04 01:44:26;;;;;;;1.17;0.70;;;;;;;;;;5039917;28;20037;-84
2022/01/04 01:46:52;;;;;;;2.67;1.00;;;;;;;;;;5029633;28;20030;-84
2022/01/04 01:49:18;;;;;;;1.70;0.90;;;;;;;;;;5034005;28;20024;-85
2022/01/04 01:51:44;;;;;;;4.65;0.65;;;;;;;;;;5035550;28;20485;-85
2022/01/04 01:54:10;;;;;;;2.00;0.70;;;;;;;;;;5041077;28;20132;-84
2022/01/04 01:56:36;;;;;;;1.92;0.68;;;;;;;;;;5043727;28;20461;-84
2022/01/04 01:59:02;;;;;;;2.00;0.90;;;;;;;;;;5056181;28;20057;-84
2022/01/04 02:01:28;;;;;;;1.75;0.73;;;;;;;;;;5022491;28;20117;-84
2022/01/04 02:03:55;;;;;;;1.73;0.57;;;;;;;;;;5039462;28;20396;-86
2022/01/04 02:06:22;;;;;;;0.43;0.40;;;;;;;;;;5046398;28;20209;-85
2022/01/04 02:08:48;;;;;;;2.45;0.75;;;;;;;;;;5027347;28;20025;-84
2022/01/04 02:11:14;;;;;;;2.05;0.70;;;;;;;;;;5045307;28;20162;-84
2022/01/04 02:13:40;;;;;;;0.77;0.65;;;;;;;;;;5041099;28;20029;-84
2022/01/04 02:16:08;;;;;;;2.05;0.70;;;;;;;;;;5037582;28;20116;-84
2022/01/04 02:18:34;;;;;;;1.13;0.60;;;;;;;;;;5020810;28;20050;-84
2022/01/04 02:21:00;;;;;;;0.93;0.50;;;;;;;;;;5021417;28;20041;-84
2022/01/04 02:23:26;;;;;;;1.73;0.60;;;;;;;;;;5049321;28;20491;-85
2022/01/04 02:25:52;;;;;;;0.80;0.70;;;;;;;;;;5030462;28;20017;-85
2022/01/04 02:28:20;;;;;;;2.42;0.60;;;;;;;;;;5036370;28;20029;-84
2022/01/04 02:30:47;;;;;;;2.47;0.45;;;;;;;;;;5036382;28;20036;-84
2022/01/04 02:33:13;;;;;;;4.35;0.70;;;;;;;;;;5032707;28;20129;-84
2022/01/04 02:35:39;;;;;;;3.28;0.90;;;;;;;;;;5032206;28;20392;-84
2022/01/04 02:38:05;;;;;;;1.20;0.57;;;;;;;;;;5042394;28;20495;-84
2022/01/04 02:40:32;;;;;;;2.03;0.70;;;;;;;;;;5043145;28;20033;-84
2022/01/04 02:42:58;;;;;;;2.40;0.63;;;;;;;;;;5040369;28;20025;-83
2022/01/04 02:45:24;;;;;;;1.60;0.60;;;;;;;;;;5027763;28;20133;-83
2022/01/04 02:47:51;;;;;;;1.17;0.60;;;;;;;;;;5051194;28;20068;-84
2022/01/04 02:50:17;;;;;;;1.60;0.60;;;;;;;;;;5057152;28;20051;-84
2022/01/04 02:52:43;;;;;;;0.75;0.45;;;;;;;;;;5038981;28;20389;-84
2022/01/04 02:55:10;;;;;;;1.90;0.75;;;;;;;;;;5026598;28;20128;-85
2022/01/04 02:57:37;;;;;;;2.05;0.60;;;;;;;;;;5027987;28;20026;-85
2022/01/04 03:00:04;;;;;;;0.70;0.50;;;;;;;;;;5039731;28;20123;-85
2022/01/04 03:02:30;;;;;;;0.73;0.50;;;;;;;;;;5032303;28;20029;-85
2022/01/04 03:04:56;;;;;;;2.20;0.60;;;;;;;;;;5051662;28;20025;-84
2022/01/04 03:07:22;;;;;;;0.85;0.60;;;;;;;;;;5032701;28;20025;-84
2022/01/04 03:09:48;;;;;;;2.60;0.50;;;;;;;;;;5039346;28;20112;-84
2022/01/04 03:12:14;;;;;;;1.58;0.70;;;;;;;;;;5048827;28;20056;-83
2022/01/04 03:14:40;;;;;;;1.50;0.50;;;;;;;;;;5038326;28;20036;-85
2022/01/04 03:17:06;;;;;;;4.55;0.63;;;;;;;;;;5028270;28;20025;-84
2022/01/04 03:19:32;;;;;;;1.52;0.63;;;;;;;;;;5055470;28;20056;-84
2022/01/04 03:21:58;;;;;;;2.88;1.27;;;;;;;;;;5039150;28;20025;-84
2022/01/04 03:24:25;;;;;;;3.15;0.95;;;;;;;;;;5031171;28;20045;-84
2022/01/04 03:26:51;;;;;;;2.92;0.93;;;;;;;;;;5023888;28;20832;-84
2022/01/04 03:29:17;;;;;;;1.55;0.70;;;;;;;;;;5032438;28;20056;-84
2022/01/04 03:31:44;;;;;;;2.40;0.80;;;;;;;;;;5024419;28;20022;-83
2022/01/04 03:34:10;;;;;;;4.85;1.20;;;;;;;;;;5048648;28;20073;-83
2022/01/04 03:36:37;;;;;;;1.05;0.68;;;;;;;;;;5047284;28;20028;-84
2022/01/04 03:39:05;;;;;;;1.25;0.70;;;;;;;;;;5020466;28;20033;-85
2022/01/04 03:41:32;;;;;;;0.90;0.50;;;;;;;;;;5019992;28;20026;-84
2022/01/04 03:43:58;;;;;;;3.15;0.82;;;;;;;;;;5051012;28;20029;-84
2022/01/04 03:46:24;;;;;;;1.55;0.63;;;;;;;;;;5038482;28;20526;-84
2022/01/04 03:48:50;;;;;;;1.67;0.60;;;;;;;;;;5047507;28;20485;-85
2022/01/04 03:51:16;;;;;;;1.45;0.60;;;;;;;;;;5020213;28;20025;-84
2022/01/04 03:53:42;;;;;;;1.17;0.43;;;;;;;;;;5033852;28;20111;-85
2022/01/04 03:56:09;;;;;;;1.13;0.45;;;;;;;;;;5027818;28;20021;-85
2022/01/04 03:58:35;;;;;;;2.90;0.68;;;;;;;;;;5039374;28;20066;-84
2022/01/04 04:01:01;;;;;;;3.15;0.50;;;;;;;;;;5038222;28;20025;-83
2022/01/04 04:03:29;;;;;;;1.52;0.68;;;;;;;;;;5019382;28;20389;-83
2022/01/04 04:05:55;;;;;;;1.00;0.50;;;;;;;;;;5023527;28;20017;-84
2022/01/04 04:08:21;;;;;;;1.23;0.65;;;;;;;;;;5040741;28;20148;-84
2022/01/04 04:10:47;;;;;;;1.40;0.50;;;;;;;;;;5040221;28;20022;-84
2022/01/04 04:13:13;;;;;;;0.73;0.57;;;;;;;;;;5039523;28;20027;-84
2022/01/04 04:15:40;;;;;;;0.90;0.50;;;;;;;;;;5036070;28;20079;-85
2022/01/04 04:18:07;;;;;;;1.15;0.68;;;;;;;;;;5024606;28;20045;-84
2022/01/04 04:20:33;;;;;;;2.25;0.63;;;;;;;;;;5053617;28;20023;-83
2022/01/04 04:22:59;;;;;;;1.25;0.65;;;;;;;;;;5025235;28;20385;-84
2022/01/04 04:25:25;;;;;;;2.17;0.80;;;;;;;;;;5025483;28;20041;-84
2022/01/04 04:27:51;;;;;;;2.35;0.60;;;;;;;;;;5037338;28;20502;-84
2022/01/04 04:30:17;;;;;;;1.08;0.70;;;;;;;;;;5036258;28;20052;-84
2022/01/04 04:32:43;;;;;;;1.40;1.02;;;;;;;;;;5038802;28;20619;-84
2022/01/04 04:35:09;;;;;;;2.65;0.90;;;;;;;;;;5031528;28;20040;-84
2022/01/04 04:37:35;;;;;;;1.05;0.70;;;;;;;;;;5026242;28;20436;-85
2022/01/04 04:40:01;;;;;;;1.75;0.85;;;;;;;;;;5024635;28;20032;-85
2022/01/04 04:42:27;;;;;;;0.77;0.47;;;;;;;;;;5022333;28;20090;-85
2022/01/04 04:44:53;;;;;;;5.78;0.95;;;;;;;;;;5027434;28;20469;-84
2022/01/04 04:47:19;;;;;;;1.15;0.80;;;;;;;;;;5057179;28;20025;-85
2022/01/04 04:49:45;;;;;;;2.47;0.80;;;;;;;;;;5043499;28;20021;-84
2022/01/04 04:52:11;;;;;;;2.00;0.90;;;;;;;;;;5027986;28;20400;-85
2022/01/04 04:54:37;;;;;;;0.85;0.70;;;;;;;;;;5044292;28;20029;-85
2022/01/04 04:57:03;;;;;;;4.07;0.77;;;;;;;;;;5026859;28;20029;-84
2022/01/04 04:59:29;;;;;;;0.70;0.63;;;;;;;;;;5045360;28;20033;-84
2022/01/04 05:01:55;;;;;;;1.50;0.73;;;;;;;;;;5019202;28;20523;-84
2022/01/04 05:04:21;;;;;;;1.30;0.68;;;;;;;;;;5019122;28;20052;-84
2022/01/04 05:06:48;;;;;;;0.45;0.40;;;;;;;;;;5039048;28;20476;-83
2022/01/04 05:09:14;;;;;;;1.98;0.82;;;;;;;;;;5026063;28;20021;-83
2022/01/04 05:11:40;;;;;;;2.97;1.08;;;;;;;;;;5032299;28;20056;-83
2022/01/04 05:14:06;;;;;;;1.83;1.08;;;;;;;;;;5027304;28;20123;-84
2022/01/04 05:16:32;;;;;;;2.55;1.20;;;;;;;;;;5020829;28;20485;-83
2022/01/04 05:18:58;;;;;;;1.58;0.95;;;;;;;;;;5037331;28;20053;-83
2022/01/04 05:21:24;;;;;;;1.70;0.82;;;;;;;;;;5019989;28;20115;-84
2022/01/04 05:23:50;;;;;;;4.68;0.90;;;;;;;;;;5033927;28;20026;-84
2022/01/04 05:26:16;;;;;;;4.45;0.77;;;;;;;;;;5031903;28;20023;-84
2022/01/04 05:28:45;;;;;;;1.67;0.80;;;;;;;;;;5017499;28;20386;-85
2022/01/04 05:31:11;;;;;;;1.90;0.60;;;;;;;;;;5038864;28;20021;-85
2022/01/04 05:33:37;;;;;;;2.25;1.00;;;;;;;;;;5029301;28;20131;-87
2022/01/04 05:36:03;;;;;;;3.97;0.93;;;;;;;;;;5033824;28;20056;-87
2022/01/04 05:38:29;;;;;;;3.03;1.10;;;;;;;;;;5029334;28;20487;-87
2022/01/04 05:40:55;;;;;;;2.75;1.10;;;;;;;;;;5036503;28;20070;-87
2022/01/04 05:43:21;;;;;;;1.95;0.95;;;;;;;;;;5049210;28;20131;-87
2022/01/04 05:45:47;;;;;;;1.73;1.00;;;;;;;;;;5016987;28;20138;-87
2022/01/04 05:48:13;;;;;;;3.05;0.90;;;;;;;;;;5030386;28;20029;-86
2022/01/04 05:50:40;;;;;;;1.95;0.90;;;;;;;;;;5023588;28;20029;-87
2022/01/04 05:53:06;;;;;;;1.52;0.80;;;;;;;;;;5039806;28;20100;-87
2022/01/04 05:55:32;;;;;;;1.17;0.80;;;;;;;;;;5031465;28;20163;-87
2022/01/04 05:57:58;;;;;;;2.72;1.00;;;;;;;;;;5016784;28;20112;-87
2022/01/04 06:00:26;;;;;;;2.28;0.68;;;;;;;;;;5023451;28;20055;-87
2022/01/04 06:02:52;;;;;;;1.95;0.90;;;;;;;;;;5030679;28;20030;-87
2022/01/04 06:05:18;;;;;;;1.48;0.68;;;;;;;;;;5017018;28;20029;-88
2022/01/04 06:07:44;;;;;;;1.95;1.00;;;;;;;;;;5041319;28;20202;-88
2022/01/04 06:10:12;;;;;;;0.80;0.70;;;;;;;;;;5041304;28;20073;-84
2022/01/04 06:15:08;;;;;;;3.47;1.25;;;;;;;;;;5057909;28;20123;-85
2022/01/04 06:17:39;;;;;;;2.53;0.90;;;;;;;;;;5059697;28;20341;-84
2022/01/04 06:20:06;;;;;;;1.33;1.10;;;;;;;;;;5031992;28;20037;-83
2022/01/04 06:22:32;;;;;;;2.20;1.33;;;;;;;;;;5027384;28;20163;-84
2022/01/04 06:24:58;;;;;;;1.73;1.02;;;;;;;;;;5040963;28;20056;-84
2022/01/04 06:27:24;;;;;;;1.30;0.80;;;;;;;;;;5039092;28;20362;-83
2022/01/04 06:29:50;;;;;;;3.15;1.15;;;;;;;;;;5022656;28;20029;-84
2022/01/04 06:32:16;;;;;;;2.30;1.20;;;;;;;;;;5040912;28;20075;-84
2022/01/04 06:34:43;;;;;;;2.45;0.98;;;;;;;;;;5040724;28;20021;-83
2022/01/04 06:37:09;;;;;;;3.78;1.20;;;;;;;;;;5037403;28;20048;-83
2022/01/04 06:39:35;;;;;;;1.95;0.73;;;;;;;;;;5034067;28;20036;-83
2022/01/04 06:42:02;;;;;;;1.33;1.00;;;;;;;;;;5046837;28;20477;-84
2022/01/04 06:44:28;;;;;;;1.30;1.00;;;;;;;;;;5025561;28;20021;-84
2022/01/04 06:46:54;;;;;;;5.60;1.42;;;;;;;;;;5028956;28;20071;-84
2022/01/04 06:49:20;;;;;;;3.33;1.00;;;;;;;;;;5041375;28;20028;-83
2022/01/04 06:51:47;;;;;;;4.80;1.40;;;;;;;;;;5040289;28;20029;-84
2022/01/04 06:54:14;;;;;;;2.17;1.00;;;;;;;;;;5028138;28;20063;-83
2022/01/04 06:56:40;;;;;;;2.38;1.17;;;;;;;;;;5034402;28;20090;-83
2022/01/04 06:59:07;;;;;;;2.88;1.40;;;;;;;;;;5019865;28;20124;-83
2022/01/04 07:01:34;;;;;;;5.30;1.67;;;;;;;;;;5033741;28;20115;-83
2022/01/04 07:04:00;;;;;;;3.00;1.45;;;;;;;;;;5058368;28;20021;-84
2022/01/04 07:06:26;;;;;;;2.15;1.23;;;;;;;;;;5040011;28;20036;-84
2022/01/04 07:08:52;;;;;;;1.90;1.10;;;;;;;;;;5030973;28;20018;-84
2022/01/04 07:11:18;;;;;;;2.28;1.30;;;;;;;;;;5023092;28;20021;-84
2022/01/04 07:13:44;;;;;;;2.08;1.30;;;;;;;;;;5038194;28;20029;-85
2022/01/04 07:16:10;;;;;;;2.70;1.42;;;;;;;;;;5060180;28;20111;-85
2022/01/04 07:18:37;;;;;;;2.25;1.20;;;;;;;;;;5046116;28;20171;-84
2022/01/04 07:21:03;;;;;;;2.25;1.25;;;;;;;;;;5038957;28;20087;-85
2022/01/04 07:23:29;;;;;;;1.67;1.23;;;;;;;;;;5023388;28;20469;-85
2022/01/04 07:25:56;;;;;;;2.45;1.25;;;;;;;;;;5051638;28;22192;-84
2022/01/04 07:28:22;;;;;;;1.95;1.13;;;;;;;;;;5037153;28;21887;-84
2022/01/04 07:30:49;;;;;;;3.20;1.10;;;;;;;;;;5044244;28;20036;-83
2022/01/04 07:33:16;;;;;;;3.25;1.13;;;;;;;;;;5039201;28;20093;-85
2022/01/04 07:35:42;;;;;;;2.20;1.23;;;;;;;;;;5034695;28;20142;-84
2022/01/04 07:38:08;;;;;;;3.95;2.10;;;;;;;;;;5062491;28;20071;-84
2022/01/04 07:40:34;;;;;;;2.88;1.75;;;;;;;;;;5035165;28;20017;-84
2022/01/04 07:43:00;;;;;;;3.88;1.45;;;;;;;;;;5038371;28;20432;-83
2022/01/04 07:45:30;;;;;;;3.95;1.50;;;;;;;;;;5022554;28;20104;-83
2022/01/04 07:47:56;;;;;;;4.20;1.38;;;;;;;;;;5025066;28;20059;-84
2022/01/04 07:50:22;;;;;;;4.18;1.92;;;;;;;;;;5026685;28;20477;-84
2022/01/04 07:53:02;;;;;;;3.00;1.40;;;;;;;;;;5024935;28;20121;-84
2022/01/04 07:55:28;;;;;;;5.07;2.03;;;;;;;;;;5033223;28;20041;-84
2022/01/04 07:57:54;;;;;;;5.32;1.83;;;;;;;;;;5025378;28;20430;-84
2022/01/04 08:00:20;;;;;;;3.55;1.90;;;;;;;;;;5033045;28;20026;-84
2022/01/04 08:02:46;;;;;;;3.55;1.98;;;;;;;;;;5032534;28;20071;-85
2022/01/04 08:05:13;;;;;;;4.55;2.28;;;;;;;;;;5049594;28;20076;-84
2022/01/04 08:07:39;;;;;;;3.17;2.08;;;;;;;;;;5037481;28;20037;-85
2022/01/04 08:10:05;;;;;;;5.47;2.13;;;;;;;;;;5046100;28;20044;-85
2022/01/04 08:12:32;;;;;;;3.42;1.83;;;;;;;;;;5064840;28;20040;-85
2022/01/04 08:14:58;;;;;;;4.57;1.70;;;;;;;;;;5028042;28;20485;-85
2022/01/04 08:17:24;;;;;;;5.90;1.88;;;;;;;;;;5031382;28;20033;-84
2022/01/04 08:19:51;;;;;;;4.50;2.10;;;;;;;;;;5030426;28;20033;-84
2022/01/04 08:22:18;;;;;;;3.83;2.03;;;;;;;;;;5047702;28;20560;-84
2022/01/04 08:24:44;;;;;;;2.90;1.63;;;;;;;;;;5057926;28;20035;-84
2022/01/04 08:27:10;;;;;;;4.15;1.73;;;;;;;;;;5034820;28;20021;-84
2022/01/04 08:29:36;;;;;;;2.85;1.90;;;;;;;;;;5034174;28;20104;-85
2022/01/04 08:32:02;;;;;;;1.83;1.40;;;;;;;;;;5048765;28;20074;-84
2022/01/04 08:34:29;;;;;;;3.60;2.10;;;;;;;;;;5051332;28;20053;-84
2022/01/04 08:36:55;;;;;;;2.25;1.50;;;;;;;;;;5050282;28;20390;-84
2022/01/04 08:39:26;;;;;;;3.08;1.10;;;;;;;;;;5023327;28;20131;-85
2022/01/04 08:41:54;;;;;;;2.83;1.58;;;;;;;;;;5025924;28;20025;-85
2022/01/04 08:44:20;;;;;;;3.25;1.23;;;;;;;;;;5036498;28;20025;-85
2022/01/04 08:46:46;;;;;;;3.17;1.27;;;;;;;;;;5039725;28;20124;-84
2022/01/04 08:49:12;;;;;;;3.58;1.27;;;;;;;;;;5038777;28;20061;-85
2022/01/04 08:51:38;;;;;;;3.03;1.40;;;;;;;;;;5038816;28;20021;-84
2022/01/04 08:54:05;;;;;;;4.10;1.25;;;;;;;;;;5030210;28;20021;-84
2022/01/04 08:56:32;;;;;;;1.63;0.88;;;;;;;;;;5039596;28;20119;-84
2022/01/04 08:58:58;;;;;;;1.20;0.85;;;;;;;;;;5039156;28;20186;-84
2022/01/04 09:01:24;;;;;;;2.15;1.00;;;;;;;;;;5033561;28;20119;-85
2022/01/04 09:03:50;;;;;;;2.53;0.93;;;;;;;;;;5037571;28;20492;-86
2022/01/04 09:06:16;;;;;;;1.90;1.10;;;;;;;;;;5044751;28;20113;-85
2022/01/04 09:08:43;;;;;;;1.63;1.00;;;;;;;;;;5024261;28;20044;-85
2022/01/04 09:11:10;;;;;;;1.67;1.10;;;;;;;;;;5018762;28;20132;-85
2022/01/04 09:13:42;;;;;;;3.10;0.80;;;;;;;;;;5036919;28;20032;-84
2022/01/04 09:18:45;;;;;;;4.13;0.90;;;;;;;;;;5058646;28;20049;-84
2022/01/04 09:21:12;;;;;;;0.98;0.60;;;;;;;;;;5037427;28;20029;-85
2022/01/04 09:23:38;;;;;;;1.92;0.80;;;;;;;;;;5046609;28;20021;-85
2022/01/04 09:26:04;;;;;;;1.45;1.00;;;;;;;;;;5056366;28;20086;-84
2022/01/04 09:28:31;;;;;;;0.73;0.60;;;;;;;;;;5022229;28;20702;-84
2022/01/04 09:30:57;;;;;;;1.15;0.63;;;;;;;;;;5033990;28;20389;-85
2022/01/04 09:33:24;;;;;;;0.52;0.52;;;;;;;;;;5038538;28;20096;-84
2022/01/04 09:35:50;;;;;;;1.33;0.60;;;;;;;;;;5056032;28;20116;-84
2022/01/04 09:38:17;;;;;;;1.42;0.73;;;;;;;;;;5055877;28;20048;-84
2022/01/04 09:40:43;;;;;;;1.10;0.70;;;;;;;;;;5030778;28;20029;-84
2022/01/04 09:43:10;;;;;;;1.02;0.68;;;;;;;;;;5039430;28;20040;-84
2022/01/04 09:45:36;;;;;;;2.25;0.55;;;;;;;;;;5030477;28;20111;-84
2022/01/04 09:48:03;;;;;;;0.63;0.60;;;;;;;;;;5058488;28;20051;-84
2022/01/04 09:50:29;;;;;;;2.58;0.60;;;;;;;;;;5028244;28;20036;-84
2022/01/04 09:52:56;;;;;;;0.82;0.50;;;;;;;;;;5041559;28;20025;-84
2022/01/04 09:55:22;;;;;;;3.97;1.00;;;;;;;;;;5036560;28;20047;-84
2022/01/04 09:57:49;;;;;;;2.05;0.88;;;;;;;;;;5036817;28;20036;-85
2022/01/04 10:00:17;;;;;;;0.98;0.45;;;;;;;;;;5040699;28;20025;-86
2022/01/04 10:02:43;;;;;;;0.63;0.55;;;;;;;;;;5059090;28;20367;-84
2022/01/04 10:05:15;;;;;;;2.25;0.50;;;;;;;;;;5041105;28;20021;-86
2022/01/04 10:07:42;;;;;;;0.65;0.40;;;;;;;;;;5041602;28;20056;-85
2022/01/04 10:10:12;;;;;;;0.88;0.60;;;;;;;;;;5060827;28;20029;-84
2022/01/04 10:12:59;;;;;;;0.77;0.50;;;;;;;;;;5021556;28;20029;-84
2022/01/04 10:15:33;;;;;;;1.50;0.60;;;;;;;;;;5039909;28;20032;-85
2022/01/04 10:18:02;;;;;;;0.30;0.30;;;;;;;;;;5061004;28;20048;-84
2022/01/04 10:20:28;;;;;;;1.33;0.50;;;;;;;;;;5020943;28;20075;-85
2022/01/04 10:22:54;;;;;;;1.23;0.60;;;;;;;;;;5048299;28;20111;-84
2022/01/04 10:25:20;;;;;;;0.90;0.60;;;;;;;;;;5035315;28;20028;-85
2022/01/04 10:27:47;;;;;;;0.68;0.40;;;;;;;;;;5046204;28;20033;-84
2022/01/04 10:30:15;;;;;;;1.63;0.95;;;;;;;;;;5048667;28;20032;-85
2022/01/04 10:32:45;;;;;;;1.35;0.70;;;;;;;;;;5034605;28;20029;-84
2022/01/04 10:35:11;;;;;;;1.10;0.50;;;;;;;;;;5052478;28;20492;-85
2022/01/04 10:37:39;;;;;;;1.42;0.90;;;;;;;;;;5036401;28;20031;-84
2022/01/04 10:40:07;;;;;;;1.23;0.70;;;;;;;;;;5038723;28;20024;-85
2022/01/04 10:42:33;;;;;;;1.02;0.68;;;;;;;;;;5031282;28;20029;-85
2022/01/04 10:44:59;;;;;;;2.45;0.63;;;;;;;;;;5040640;28;20025;-84
2022/01/04 10:47:29;;;;;;;1.73;0.80;;;;;;;;;;5032312;28;20029;-85
2022/01/04 10:49:55;;;;;;;1.00;0.73;;;;;;;;;;5041583;28;20016;-85
2022/01/04 10:52:30;;;;;;;1.35;0.77;;;;;;;;;;5052104;28;20396;-85
2022/01/04 10:55:15;;;;;;;2.78;0.70;;;;;;;;;;5035186;28;20056;-85
2022/01/04 10:57:41;;;;;;;1.88;0.90;;;;;;;;;;5037764;28;20059;-84
2022/01/04 11:00:15;;;;;;;2.13;1.00;;;;;;;;;;5038051;28;20036;-84
2022/01/04 11:02:41;;;;;;;1.80;0.90;;;;;;;;;;5026777;28;20099;-84
2022/01/04 11:05:13;;;;;;;1.30;0.85;;;;;;;;;;5039167;28;20054;-84
2022/01/04 11:07:58;;;;;;;1.80;0.90;;;;;;;;;;5039826;28;20055;-84
2022/01/04 11:10:24;;;;;;;1.17;0.80;;;;;;;;;;5039616;28;20026;-84
2022/01/04 11:12:51;;;;;;;1.30;1.00;;;;;;;;;;5035561;28;20587;-84
2022/01/04 11:15:18;;;;;;;1.50;0.80;;;;;;;;;;5056841;28;20476;-83
2022/01/04 11:17:45;;;;;;;1.52;0.80;;;;;;;;;;5039676;28;20059;-84
2022/01/04 11:20:11;;;;;;;1.05;0.75;;;;;;;;;;5039143;28;20061;-84
2022/01/04 11:22:42;;;;;;;0.95;0.85;;;;;;;;;;5036425;28;20068;-84
2022/01/04 11:25:08;;;;;;;1.67;0.93;;;;;;;;;;5036885;28;20021;-84
2022/01/04 11:27:38;;;;;;;3.42;1.10;;;;;;;;;;5039103;28;20021;-83
2022/01/04 11:30:07;;;;;;;1.52;0.90;;;;;;;;;;5040036;28;20020;-84
2022/01/04 11:32:36;;;;;;;2.83;0.77;;;;;;;;;;5038330;28;20120;-85
2022/01/04 11:35:13;;;;;;;1.98;0.82;;;;;;;;;;5038950;28;20109;-85
2022/01/04 11:37:42;;;;;;;2.90;0.93;;;;;;;;;;5038930;28;20037;-85
2022/01/04 11:40:24;;;;;;;1.42;0.85;;;;;;;;;;5055289;28;20032;-85
2022/01/04 11:42:50;;;;;;;2.53;1.15;;;;;;;;;;5021048;28;20032;-85
2022/01/04 11:45:36;;;;;;;4.15;1.00;;;;;;;;;;5039151;28;20056;-85
2022/01/04 11:48:02;;;;;;;1.65;0.70;;;;;;;;;;5039865;28;20052;-83
2022/01/04 11:50:35;;;;;;;3.13;0.70;;;;;;;;;;5046261;28;20384;-85
2022/01/04 11:53:06;;;;;;;1.17;0.70;;;;;;;;;;5058126;28;20107;-85
2022/01/04 11:55:36;;;;;;;2.25;1.00;;;;;;;;;;5037090;28;20109;-85
2022/01/04 11:58:04;;;;;;;1.42;0.93;;;;;;;;;;5023033;28;20033;-85
2022/01/04 12:00:31;;;;;;;1.23;0.80;;;;;;;;;;5037685;28;20444;-84
2022/01/04 12:03:18;;;;;;;2.40;1.33;;;;;;;;;;5040087;28;20025;-83
2022/01/04 12:05:56;;;;;;;1.42;0.80;;;;;;;;;;5042658;28;20036;-84
2022/01/04 12:08:24;;;;;;;1.27;0.68;;;;;;;;;;5018222;28;20022;-85
2022/01/04 12:10:51;;;;;;;1.48;0.90;;;;;;;;;;5033550;28;20104;-84
2022/01/04 12:13:18;;;;;;;2.35;1.15;;;;;;;;;;5017648;28;20034;-83
2022/01/04 12:15:52;;;;;;;1.00;0.75;;;;;;;;;;5069861;28;20422;-83
2022/01/04 12:18:24;;;;;;;0.93;0.68;;;;;;;;;;5029817;28;20122;-83
2022/01/04 12:20:51;;;;;;;1.48;0.70;;;;;;;;;;5023628;28;20021;-83
2022/01/04 12:23:26;;;;;;;1.77;0.70;;;;;;;;;;5033523;28;20081;-83
2022/01/04 12:26:12;;;;;;;1.30;0.85;;;;;;;;;;5039046;28;20063;-83
2022/01/04 12:28:57;;;;;;;2.58;1.00;;;;;;;;;;5048230;28;20491;-83
2022/01/04 12:31:24;;;;;;;2.42;1.15;;;;;;;;;;5035721;28;20083;-84
2022/01/04 12:33:51;;;;;;;1.70;1.08;;;;;;;;;;5025353;28;20063;-84
2022/01/04 12:36:25;;;;;;;2.83;1.13;;;;;;;;;;5027228;28;20060;-83
2022/01/04 12:38:52;;;;;;;2.05;1.10;;;;;;;;;;5051552;28;20024;-83
2022/01/04 12:41:18;;;;;;;2.35;0.95;;;;;;;;;;5032754;28;20128;-83
2022/01/04 12:43:47;;;;;;;2.78;1.23;;;;;;;;;;5029969;28;20111;-83
2022/01/04 12:46:14;;;;;;;1.63;0.90;;;;;;;;;;5036674;28;20017;-83
2022/01/04 12:48:51;;;;;;;1.92;0.80;;;;;;;;;;5028219;28;20055;-83
2022/01/04 12:51:39;;;;;;;1.33;1.00;;;;;;;;;;5036872;28;20044;-83
2022/01/04 12:54:08;;;;;;;2.97;1.30;;;;;;;;;;5036877;28;20052;-83
2022/01/04 12:56:41;;;;;;;1.75;0.95;;;;;;;;;;5021898;28;20033;-83
2022/01/04 12:59:08;;;;;;;2.15;1.20;;;;;;;;;;5029760;28;20551;-83
2022/01/04 13:01:35;;;;;;;1.85;1.00;;;;;;;;;;5023074;28;20507;-83
2022/01/04 13:04:01;;;;;;;1.10;0.85;;;;;;;;;;5036323;28;20025;-84
2022/01/04 13:06:27;;;;;;;1.65;1.00;;;;;;;;;;5031984;28;20495;-84
2022/01/04 13:08:57;;;;;;;3.30;1.10;;;;;;;;;;5029870;28;20091;-84
2022/01/04 13:11:24;;;;;;;1.38;0.95;;;;;;;;;;5065541;28;20495;-83
2022/01/04 13:14:08;;;;;;;1.73;0.88;;;;;;;;;;5034225;28;20112;-84
2022/01/04 13:16:35;;;;;;;1.73;1.10;;;;;;;;;;5026345;28;20021;-83
2022/01/04 13:19:11;;;;;;;2.08;1.10;;;;;;;;;;5052626;28;20080;-83
2022/01/04 13:21:37;;;;;;;3.90;1.73;;;;;;;;;;5036970;28;20111;-83
2022/01/04 13:24:03;;;;;;;2.45;1.05;;;;;;;;;;5021329;28;20116;-85
2022/01/04 13:26:29;;;;;;;3.42;1.13;;;;;;;;;;5048258;28;20053;-84
2022/01/04 13:28:56;;;;;;;1.73;1.10;;;;;;;;;;5035304;28;20105;-83
2022/01/04 13:31:25;;;;;;;1.20;0.93;;;;;;;;;;5027361;28;20021;-84
2022/01/04 13:33:52;;;;;;;2.00;1.17;;;;;;;;;;5036762;28;20056;-84
2022/01/04 13:36:18;;;;;;;1.60;1.00;;;;;;;;;;5018457;28;20026;-84
2022/01/04 13:38:44;;;;;;;1.25;0.95;;;;;;;;;;5035292;28;20112;-84
2022/01/04 13:41:10;;;;;;;1.52;1.05;;;;;;;;;;5035996;28;20463;-84
2022/01/04 13:43:40;;;;;;;1.92;1.15;;;;;;;;;;5049239;28;20485;-84
2022/01/04 13:46:12;;;;;;;2.08;1.30;;;;;;;;;;5035807;28;20500;-84
2022/01/04 13:48:38;;;;;;;2.75;1.70;;;;;;;;;;5022942;28;20079;-84
2022/01/04 13:51:09;;;;;;;1.98;1.25;;;;;;;;;;5035841;28;20393;-84
2022/01/04 13:53:39;;;;;;;2.00;1.35;;;;;;;;;;5034563;28;20065;-84
2022/01/04 13:56:13;;;;;;;2.47;1.20;;;;;;;;;;5032972;28;20028;-84
2022/01/04 13:58:42;;;;;;;2.33;1.38;;;;;;;;;;5026580;28;20381;-84
2022/01/04 14:01:29;;;;;;;2.50;1.55;;;;;;;;;;5032476;28;20029;-84
2022/01/04 14:03:57;;;;;;;2.50;1.40;;;;;;;;;;5054122;28;20025;-84
2022/01/04 14:06:28;;;;;;;2.63;1.25;;;;;;;;;;5044802;28;20020;-83
2022/01/04 14:08:54;;;;;;;2.85;1.38;;;;;;;;;;5054568;28;20432;-83
2022/01/04 14:11:23;;;;;;;3.13;1.40;;;;;;;;;;5025517;28;20056;-84
2022/01/04 14:13:50;;;;;;;2.15;1.45;;;;;;;;;;5018282;28;20021;-84
2022/01/04 14:16:17;;;;;;;2.00;1.40;;;;;;;;;;5032245;28;20060;-85
2022/01/04 14:19:03;;;;;;;2.13;1.30;;;;;;;;;;5034793;28;20114;-84
2022/01/04 14:21:40;;;;;;;3.20;1.75;;;;;;;;;;5049220;28;20465;-84
2022/01/04 14:24:25;;;;;;;1.77;1.38;;;;;;;;;;5038359;28;20026;-84
2022/01/04 14:26:51;;;;;;;2.60;1.30;;;;;;;;;;5042914;28;20024;-83
2022/01/04 14:29:30;;;;;;;2.92;1.92;;;;;;;;;;5037138;28;20025;-84
2022/01/04 14:31:57;;;;;;;3.47;1.45;;;;;;;;;;5031447;28;20037;-86
2022/01/04 14:34:23;;;;;;;2.00;1.27;;;;;;;;;;5026555;28;20469;-85
2022/01/04 14:36:49;;;;;;;2.00;1.35;;;;;;;;;;5039879;28;20070;-85
2022/01/04 14:39:15;;;;;;;2.95;1.50;;;;;;;;;;5055773;28;20036;-84
2022/01/04 14:41:41;;;;;;;3.78;1.55;;;;;;;;;;5039810;28;20099;-86
2022/01/04 14:44:07;;;;;;;2.53;1.30;;;;;;;;;;5041624;28;20021;-84
2022/01/04 14:46:33;;;;;;;1.98;1.33;;;;;;;;;;5037637;28;20052;-85
2022/01/04 14:48:59;;;;;;;2.85;1.20;;;;;;;;;;5036269;28;20491;-83
2022/01/04 14:51:25;;;;;;;4.90;1.50;;;;;;;;;;5042218;28;20029;-84
2022/01/04 14:53:52;;;;;;;3.45;2.08;;;;;;;;;;5033821;28;20036;-84
2022/01/04 14:56:18;;;;;;;2.53;1.63;;;;;;;;;;5032452;28;20083;-84